createdAt,value
2018-03-28T00:00:10.177Z,8.71
2018-03-28T00:02:37.760Z,8.65
2018-03-28T00:05:05.412Z,8.81
2018-03-28T00:07:33.043Z,8.81
2018-03-28T00:10:00.671Z,8.56
2018-03-28T00:12:28.276Z,8.44
2018-03-28T00:14:55.873Z,8.52
2018-03-28T00:17:23.467Z,8.51
2018-03-28T00:19:51.099Z,8.39
2018-03-28T00:22:18.783Z,8.54
2018-03-28T00:24:46.462Z,8.55
2018-03-28T00:27:14.090Z,8.49
2018-03-28T00:29:41.684Z,8.37
2018-03-28T00:32:09.749Z,8.34
2018-03-28T00:34:37.768Z,8.40
2018-03-28T00:37:06.600Z,8.45
2018-03-28T00:39:34.415Z,8.14
2018-03-28T00:42:02.007Z,8.41
2018-03-28T00:44:29.628Z,8.44
2018-03-28T00:46:57.298Z,8.27
2018-03-28T00:49:24.890Z,8.50
2018-03-28T00:51:52.490Z,8.75
2018-03-28T00:54:20.079Z,8.77
2018-03-28T00:56:47.682Z,8.76
2018-03-28T00:59:15.278Z,8.95
2018-03-28T01:01:42.867Z,8.71
2018-03-28T01:04:10.498Z,8.71
2018-03-28T01:06:38.116Z,8.77
2018-03-28T01:09:05.747Z,8.64
2018-03-28T01:11:33.388Z,8.64
2018-03-28T01:14:01.068Z,8.79
2018-03-28T01:16:28.695Z,8.69
2018-03-28T01:18:56.279Z,8.65
2018-03-28T01:21:23.907Z,8.74
2018-03-28T01:23:51.507Z,8.70
2018-03-28T01:26:19.136Z,8.74
2018-03-28T01:28:46.758Z,8.90
2018-03-28T01:31:14.342Z,8.81
2018-03-28T01:33:41.952Z,8.57
2018-03-28T01:36:09.538Z,8.69
2018-03-28T01:38:37.182Z,9.10
2018-03-28T01:41:04.778Z,9.08
2018-03-28T01:43:32.391Z,8.76
2018-03-28T01:46:00.051Z,8.48
2018-03-28T01:48:27.644Z,8.59
2018-03-28T01:50:55.268Z,8.57
2018-03-28T01:53:22.866Z,8.55
2018-03-28T01:55:50.463Z,8.58
2018-03-28T01:58:18.100Z,8.58
2018-03-28T02:00:45.693Z,8.58
2018-03-28T02:03:13.272Z,8.57
2018-03-28T02:05:40.877Z,8.43
2018-03-28T02:08:08.489Z,8.47
2018-03-28T02:10:36.130Z,8.91
2018-03-28T02:13:03.734Z,9.09
2018-03-28T02:15:31.328Z,8.86
2018-03-28T02:17:58.951Z,8.65
2018-03-28T02:20:26.587Z,8.89
2018-03-28T02:22:54.619Z,8.88
2018-03-28T02:25:22.327Z,8.82
2018-03-28T02:27:49.939Z,8.61
2018-03-28T02:30:17.518Z,8.79
2018-03-28T02:32:45.190Z,9.04
2018-03-28T02:35:12.784Z,9.02
2018-03-28T02:37:40.462Z,8.54
2018-03-28T02:40:08.787Z,8.71
2018-03-28T02:42:36.543Z,8.46
2018-03-28T02:45:04.221Z,8.68
2018-03-28T02:47:31.806Z,8.70
2018-03-28T02:49:59.544Z,8.61
2018-03-28T02:52:27.155Z,8.54
2018-03-28T02:54:54.747Z,8.56
2018-03-28T02:57:22.520Z,8.55
2018-03-28T02:59:50.143Z,8.45
2018-03-28T03:02:17.727Z,8.18
2018-03-28T03:04:45.326Z,8.23
2018-03-28T03:07:12.923Z,8.38
2018-03-28T03:09:40.585Z,8.26
2018-03-28T03:12:08.182Z,8.02
2018-03-28T03:14:35.794Z,8.26
2018-03-28T03:17:03.420Z,8.23
2018-03-28T03:19:31.022Z,8.28
2018-03-28T03:21:58.611Z,8.18
2018-03-28T03:24:26.234Z,8.12
2018-03-28T03:26:53.923Z,8.10
2018-03-28T03:29:21.514Z,8.23
2018-03-28T03:31:49.160Z,8.15
2018-03-28T03:34:16.746Z,8.25
2018-03-28T03:36:44.413Z,8.06
2018-03-28T03:39:12.056Z,8.06
2018-03-28T03:41:39.675Z,7.90
2018-03-28T03:44:07.259Z,7.99
2018-03-28T03:46:34.875Z,7.95
2018-03-28T03:49:02.470Z,7.95
2018-03-28T03:51:30.065Z,7.90
2018-03-28T03:53:57.655Z,7.96
2018-03-28T03:56:25.284Z,7.93
2018-03-28T03:58:52.919Z,7.97
2018-03-28T04:01:20.559Z,7.90
2018-03-28T04:03:48.147Z,7.98
2018-03-28T04:06:15.772Z,7.72
2018-03-28T04:08:43.363Z,8.01
2018-03-28T04:11:10.951Z,7.99
2018-03-28T04:13:38.546Z,7.94
2018-03-28T04:16:06.154Z,7.74
2018-03-28T04:18:33.815Z,7.71
2018-03-28T04:21:01.435Z,7.58
2018-03-28T04:23:29.019Z,7.70
2018-03-28T04:25:56.609Z,7.82
2018-03-28T04:28:24.194Z,7.76
2018-03-28T04:30:51.798Z,7.65
2018-03-28T04:33:19.395Z,7.68
2018-03-28T04:35:47.024Z,7.70
2018-03-28T04:38:14.615Z,7.66
2018-03-28T04:40:43.987Z,7.65
2018-03-28T04:43:11.602Z,7.81
2018-03-28T04:45:39.183Z,7.82
2018-03-28T04:48:06.871Z,7.77
2018-03-28T04:50:34.455Z,7.81
2018-03-28T04:53:02.078Z,7.88
2018-03-28T04:55:29.687Z,7.83
2018-03-28T04:57:57.298Z,7.93
2018-03-28T05:00:24.890Z,7.78
2018-03-28T05:02:52.482Z,7.87
2018-03-28T05:05:20.140Z,7.83
2018-03-28T05:07:48.873Z,7.89
2018-03-28T05:10:16.495Z,7.79
2018-03-28T05:12:44.153Z,7.69
2018-03-28T05:15:11.783Z,7.75
2018-03-28T05:17:39.394Z,7.71
2018-03-28T05:20:07.076Z,7.81
2018-03-28T05:22:34.772Z,7.77
2018-03-28T05:25:02.307Z,7.93
2018-03-28T05:27:29.987Z,7.84
2018-03-28T05:29:57.598Z,7.86
2018-03-28T05:32:25.206Z,7.89
2018-03-28T05:34:52.809Z,7.77
2018-03-28T05:37:20.417Z,7.88
2018-03-28T05:39:48.038Z,7.94
2018-03-28T05:42:15.686Z,7.60
2018-03-28T05:44:43.363Z,7.87
2018-03-28T05:47:11.039Z,7.88
2018-03-28T05:49:38.626Z,7.83
2018-03-28T05:52:06.267Z,8.02
2018-03-28T05:54:33.899Z,7.95
2018-03-28T05:57:01.499Z,7.79
2018-03-28T05:59:29.166Z,7.93
2018-03-28T06:01:56.811Z,7.88
2018-03-28T06:04:25.062Z,7.80
2018-03-28T06:06:52.682Z,8.01
2018-03-28T06:09:20.298Z,7.96
2018-03-28T06:11:47.910Z,8.01
2018-03-28T06:14:15.505Z,7.97
2018-03-28T06:16:43.108Z,8.01
2018-03-28T06:19:10.791Z,7.88
2018-03-28T06:21:38.443Z,7.94
2018-03-28T06:24:06.040Z,7.85
2018-03-28T06:26:33.703Z,7.87
2018-03-28T06:29:01.283Z,7.90
2018-03-28T06:31:28.911Z,7.98
2018-03-28T06:33:56.641Z,7.93
2018-03-28T06:36:24.256Z,8.08
2018-03-28T06:38:51.898Z,8.11
2018-03-28T06:41:20.387Z,8.08
2018-03-28T06:43:48.141Z,7.98
2018-03-28T06:46:15.890Z,8.00
2018-03-28T06:48:43.523Z,8.00
2018-03-28T06:51:11.462Z,8.05
2018-03-28T06:53:39.297Z,7.90
2018-03-28T06:56:06.907Z,8.19
2018-03-28T06:58:34.507Z,8.16
2018-03-28T07:01:02.162Z,8.34
2018-03-28T07:03:29.760Z,8.09
2018-03-28T07:05:57.368Z,8.16
2018-03-28T07:08:25.006Z,8.31
2018-03-28T07:10:52.599Z,8.21
2018-03-28T07:13:20.192Z,8.24
2018-03-28T07:15:47.831Z,8.35
2018-03-28T07:18:15.421Z,8.40
2018-03-28T07:20:43.069Z,8.64
2018-03-28T07:23:10.687Z,8.68
2018-03-28T07:25:38.299Z,8.62
2018-03-28T07:28:05.903Z,8.71
2018-03-28T07:30:33.539Z,8.77
2018-03-28T07:33:01.188Z,8.72
2018-03-28T07:35:28.781Z,8.72
2018-03-28T07:37:56.478Z,8.99
2018-03-28T07:40:24.172Z,8.82
2018-03-28T07:42:51.769Z,9.02
2018-03-28T07:45:19.432Z,9.01
2018-03-28T07:47:47.026Z,8.95
2018-03-28T07:50:14.648Z,9.01
2018-03-28T07:52:42.243Z,9.20
2018-03-28T07:55:09.940Z,9.19
2018-03-28T07:57:38.016Z,9.25
2018-03-28T08:00:05.727Z,9.41
2018-03-28T08:02:33.344Z,9.57
2018-03-28T08:05:00.935Z,9.56
2018-03-28T08:07:28.809Z,9.41
2018-03-28T08:09:57.366Z,9.62
2018-03-28T08:12:24.958Z,9.64
2018-03-28T08:14:52.622Z,9.50
2018-03-28T08:17:20.219Z,9.61
2018-03-28T08:19:47.856Z,9.38
2018-03-28T08:22:15.450Z,9.42
2018-03-28T08:24:43.079Z,9.63
2018-03-28T08:27:10.671Z,9.86
2018-03-28T08:29:38.251Z,9.94
2018-03-28T08:32:05.858Z,9.80
2018-03-28T08:34:33.503Z,9.61
2018-03-28T08:37:01.099Z,9.75
2018-03-28T08:39:28.699Z,9.95
2018-03-28T08:41:56.380Z,9.84
2018-03-28T08:44:23.964Z,9.67
2018-03-28T08:46:51.572Z,9.77
2018-03-28T08:49:19.179Z,9.93
2018-03-28T08:51:46.762Z,9.68
2018-03-28T08:54:14.495Z,10.12
2018-03-28T08:56:42.084Z,9.90
2018-03-28T08:59:09.703Z,10.05
2018-03-28T09:01:37.387Z,10.40
2018-03-28T09:04:04.979Z,10.33
2018-03-28T09:06:32.673Z,10.32
2018-03-28T09:09:00.319Z,10.67
2018-03-28T09:11:27.922Z,10.25
2018-03-28T09:13:55.560Z,9.88
2018-03-28T09:16:23.179Z,9.79
2018-03-28T09:18:50.819Z,9.81
2018-03-28T09:21:18.415Z,9.88
2018-03-28T09:23:46.008Z,10.16
2018-03-28T09:26:13.606Z,10.11
2018-03-28T09:28:41.238Z,10.15
2018-03-28T09:31:08.863Z,10.16
2018-03-28T09:33:36.503Z,10.19
2018-03-28T09:36:04.175Z,10.01
2018-03-28T09:38:31.819Z,9.95
2018-03-28T09:40:59.467Z,9.94
2018-03-28T09:43:27.050Z,9.80
2018-03-28T09:45:54.671Z,9.89
2018-03-28T09:48:22.374Z,10.03
2018-03-28T09:50:49.987Z,10.08
2018-03-28T09:53:17.580Z,10.07
2018-03-28T09:55:45.207Z,10.16
2018-03-28T09:58:13.123Z,10.36
2018-03-28T10:00:40.761Z,10.66
2018-03-28T10:03:13.106Z,10.61
2018-03-28T10:05:40.697Z,10.69
2018-03-28T10:08:08.387Z,10.86
2018-03-28T10:10:35.974Z,10.87
2018-03-28T10:13:03.564Z,10.95
2018-03-28T10:15:31.175Z,10.95
2018-03-28T10:17:58.763Z,11.18
2018-03-28T10:20:26.394Z,11.34
2018-03-28T10:22:53.998Z,11.48
2018-03-28T10:25:21.623Z,11.68
2018-03-28T10:27:49.244Z,11.37
2018-03-28T10:30:16.848Z,11.35
2018-03-28T10:32:44.483Z,11.53
2018-03-28T10:35:12.115Z,11.53
2018-03-28T10:37:39.748Z,11.26
2018-03-28T10:40:07.359Z,11.23
2018-03-28T10:42:35.035Z,11.39
2018-03-28T10:45:02.635Z,11.52
2018-03-28T10:47:30.226Z,11.87
2018-03-28T10:49:57.843Z,11.98
2018-03-28T10:52:25.435Z,12.16
2018-03-28T10:54:53.066Z,11.85
2018-03-28T10:57:20.683Z,11.69
2018-03-28T10:59:48.314Z,11.77
2018-03-28T11:02:15.916Z,11.16
2018-03-28T11:04:43.511Z,11.73
2018-03-28T11:07:11.158Z,11.90
2018-03-28T11:09:38.743Z,12.06
2018-03-28T11:12:06.344Z,12.68
2018-03-28T11:14:33.972Z,13.65
2018-03-28T11:17:01.563Z,13.93
2018-03-28T11:19:29.191Z,13.63
2018-03-28T11:21:56.819Z,13.50
2018-03-28T11:24:24.413Z,13.86
2018-03-28T11:26:52.009Z,13.88
2018-03-28T11:29:19.609Z,14.04
2018-03-28T11:31:47.202Z,14.22
2018-03-28T11:34:14.791Z,14.33
2018-03-28T11:36:42.383Z,14.09
2018-03-28T11:39:09.999Z,14.09
2018-03-28T11:41:37.604Z,13.86
2018-03-28T11:44:05.197Z,13.44
2018-03-28T11:46:32.827Z,12.87
2018-03-28T11:49:00.454Z,12.64
2018-03-28T11:51:28.046Z,12.90
2018-03-28T11:53:55.669Z,12.85
2018-03-28T11:56:23.311Z,13.14
2018-03-28T11:58:51.070Z,13.11
2018-03-28T12:01:18.682Z,13.35
2018-03-28T12:03:46.304Z,13.60
2018-03-28T12:06:13.903Z,13.26
2018-03-28T12:08:41.515Z,13.12
2018-03-28T12:11:09.151Z,12.44
2018-03-28T12:13:36.751Z,12.68
2018-03-28T12:16:04.425Z,12.32
2018-03-28T12:18:32.015Z,12.48
2018-03-28T12:20:59.683Z,13.18
2018-03-28T12:23:27.330Z,12.72
2018-03-28T12:25:55.008Z,12.69
2018-03-28T12:28:27.698Z,12.72
2018-03-28T12:30:55.312Z,12.41
2018-03-28T12:33:22.902Z,12.96
2018-03-28T12:35:50.506Z,13.00
2018-03-28T12:38:18.712Z,12.92
2018-03-28T12:40:46.422Z,13.49
2018-03-28T12:43:14.024Z,13.40
2018-03-28T12:45:41.665Z,13.07
2018-03-28T12:48:09.298Z,12.85
2018-03-28T12:50:39.451Z,13.36
2018-03-28T12:53:07.042Z,13.70
2018-03-28T12:55:34.831Z,13.87
2018-03-28T12:58:02.389Z,14.35
2018-03-28T13:00:30.003Z,14.45
2018-03-28T13:02:57.600Z,14.44
2018-03-28T13:05:25.195Z,14.29
2018-03-28T13:07:52.809Z,13.97
2018-03-28T13:10:20.422Z,14.38
2018-03-28T13:12:48.063Z,13.92
2018-03-28T13:15:15.706Z,12.92
2018-03-28T13:17:43.367Z,12.48
2018-03-28T13:20:10.955Z,12.28
2018-03-28T13:22:38.550Z,11.91
2018-03-28T13:25:06.141Z,12.21
2018-03-28T13:27:33.778Z,12.40
2018-03-28T13:30:01.414Z,11.93
2018-03-28T13:32:28.998Z,12.48
2018-03-28T13:34:56.610Z,12.29
2018-03-28T13:37:24.212Z,12.64
2018-03-28T13:39:51.838Z,12.57
2018-03-28T13:42:19.453Z,12.65
2018-03-28T13:44:47.048Z,12.50
2018-03-28T13:47:14.656Z,12.53
2018-03-28T13:49:42.243Z,12.25
2018-03-28T13:52:09.850Z,12.01
2018-03-28T13:54:37.563Z,12.30
2018-03-28T13:57:05.160Z,12.23
2018-03-28T13:59:32.759Z,12.07
2018-03-28T14:02:00.387Z,12.18
2018-03-28T14:04:27.985Z,12.24
2018-03-28T14:06:55.570Z,12.37
2018-03-28T14:09:23.177Z,12.37
2018-03-28T14:11:50.849Z,12.51
2018-03-28T14:14:18.478Z,12.38
2018-03-28T14:16:46.128Z,12.07
2018-03-28T14:19:13.738Z,11.83
2018-03-28T14:21:41.391Z,11.53
2018-03-28T14:24:08.991Z,11.77
2018-03-28T14:26:36.615Z,11.68
2018-03-28T14:29:04.223Z,11.81
2018-03-28T14:31:31.927Z,11.26
2018-03-28T14:33:59.515Z,11.24
2018-03-28T14:36:27.121Z,11.26
2018-03-28T14:38:54.780Z,11.35
2018-03-28T14:41:22.390Z,11.49
2018-03-28T14:43:49.984Z,11.89
2018-03-28T14:46:17.595Z,11.87
2018-03-28T14:48:45.192Z,11.74
2018-03-28T14:51:12.831Z,11.89
2018-03-28T14:53:40.435Z,12.05
2018-03-28T14:56:08.083Z,12.12
2018-03-28T14:58:35.691Z,12.06
2018-03-28T15:01:03.288Z,11.88
2018-03-28T15:03:30.930Z,11.44
2018-03-28T15:05:58.518Z,11.58
2018-03-28T15:08:26.109Z,11.30
2018-03-28T15:10:53.714Z,11.33
2018-03-28T15:13:21.332Z,11.46
2018-03-28T15:15:48.930Z,11.27
2018-03-28T15:18:16.515Z,11.62
2018-03-28T15:20:44.159Z,11.39
2018-03-28T15:23:11.760Z,11.04
2018-03-28T15:25:39.368Z,10.76
2018-03-28T15:28:07.006Z,10.84
2018-03-28T15:30:34.606Z,10.54
2018-03-28T15:33:02.274Z,10.45
2018-03-28T15:35:29.878Z,10.33
2018-03-28T15:37:57.465Z,10.28
2018-03-28T15:40:25.091Z,9.89
2018-03-28T15:42:52.699Z,10.00
2018-03-28T15:45:20.291Z,10.04
2018-03-28T15:47:47.902Z,10.02
2018-03-28T15:50:15.527Z,10.00
2018-03-28T15:52:43.116Z,9.93
2018-03-28T15:55:10.730Z,9.95
2018-03-28T15:57:38.384Z,10.16
2018-03-28T16:00:06.083Z,9.94
2018-03-28T16:02:33.692Z,9.75
2018-03-28T16:05:01.315Z,9.64
2018-03-28T16:07:28.916Z,9.63
2018-03-28T16:09:56.551Z,9.72
2018-03-28T16:12:24.182Z,9.54
2018-03-28T16:14:51.775Z,9.61
2018-03-28T16:17:19.435Z,9.66
2018-03-28T16:19:47.040Z,9.65
2018-03-28T16:22:14.655Z,9.60
2018-03-28T16:24:42.319Z,9.62
2018-03-28T16:27:09.927Z,9.73
2018-03-28T16:29:37.511Z,9.60
2018-03-28T16:32:05.133Z,9.66
2018-03-28T16:34:47.283Z,9.43
2018-03-28T16:37:14.920Z,9.42
2018-03-28T16:39:42.508Z,9.35
2018-03-28T16:42:10.112Z,9.31
2018-03-28T16:44:37.695Z,9.28
2018-03-28T16:47:05.409Z,9.12
2018-03-28T16:49:32.987Z,8.94
2018-03-28T16:52:00.672Z,8.82
2018-03-28T16:54:28.303Z,8.93
2018-03-28T16:56:55.916Z,8.77
2018-03-28T16:59:23.534Z,8.86
2018-03-28T17:01:51.185Z,8.93
2018-03-28T17:04:18.783Z,8.98
2018-03-28T17:06:46.375Z,8.82
2018-03-28T17:09:13.975Z,8.86
2018-03-28T17:11:41.639Z,8.89
2018-03-28T17:14:09.248Z,8.81
2018-03-28T17:16:36.891Z,8.90
2018-03-28T17:19:04.613Z,8.82
2018-03-28T17:21:32.256Z,8.59
2018-03-28T17:23:59.852Z,8.68
2018-03-28T17:26:27.451Z,8.63
2018-03-28T17:28:55.043Z,8.63
2018-03-28T17:31:22.677Z,8.56
2018-03-28T17:33:50.290Z,8.61
2018-03-28T17:36:18.172Z,8.52
2018-03-28T17:38:45.810Z,8.54
2018-03-28T17:41:13.419Z,8.57
2018-03-28T17:43:41.090Z,8.44
2018-03-28T17:46:08.678Z,8.46
2018-03-28T17:48:36.271Z,8.44
2018-03-28T17:51:03.883Z,8.25
2018-03-28T17:53:31.596Z,8.29
2018-03-28T17:55:59.253Z,8.19
2018-03-28T17:58:26.978Z,8.31
2018-03-28T18:00:54.675Z,8.45
2018-03-28T18:03:22.373Z,8.45
2018-03-28T18:05:50.032Z,8.39
2018-03-28T18:08:17.677Z,8.20
2018-03-28T18:10:45.400Z,8.12
2018-03-28T18:13:13.075Z,8.04
2018-03-28T18:15:40.748Z,7.95
2018-03-28T18:18:08.351Z,7.90
2018-03-28T18:20:36.002Z,7.83
2018-03-28T18:23:03.619Z,7.85
2018-03-28T18:25:32.158Z,7.80
2018-03-28T18:27:59.754Z,7.64
2018-03-28T18:30:27.347Z,7.69
2018-03-28T18:32:54.978Z,7.68
2018-03-28T18:35:22.583Z,7.47
2018-03-28T18:37:50.187Z,7.40
2018-03-28T18:40:17.843Z,7.57
2018-03-28T18:42:45.506Z,7.60
2018-03-28T18:45:13.083Z,7.61
2018-03-28T18:47:40.740Z,7.42
2018-03-28T18:50:08.361Z,7.47
2018-03-28T18:52:36.006Z,7.47
2018-03-28T18:55:03.567Z,7.50
2018-03-28T18:57:31.221Z,7.42
2018-03-28T18:59:58.807Z,7.24
2018-03-28T19:02:26.431Z,7.31
2018-03-28T19:04:54.020Z,7.33
2018-03-28T19:07:21.632Z,7.40
2018-03-28T19:22:44.291Z,6.96
2018-03-28T19:25:11.891Z,7.15
2018-03-28T19:27:39.490Z,7.21
2018-03-28T19:30:07.095Z,7.24
2018-03-28T19:32:34.696Z,7.19
2018-03-28T19:35:02.275Z,7.24
2018-03-28T19:37:29.903Z,7.04
2018-03-28T19:39:57.486Z,7.07
2018-03-28T19:42:25.071Z,6.83
2018-03-28T19:44:52.704Z,6.84
2018-03-28T19:47:20.339Z,6.69
2018-03-28T19:49:47.943Z,6.64
2018-03-28T19:52:15.545Z,6.69
2018-03-28T19:54:43.171Z,6.76
2018-03-28T19:57:10.779Z,6.68
2018-03-28T19:59:38.362Z,6.65
2018-03-28T20:02:06.027Z,6.60
2018-03-28T20:04:33.610Z,6.68
2018-03-28T20:07:01.198Z,6.63
2018-03-28T20:09:28.782Z,6.50
2018-03-28T20:11:56.362Z,6.52
2018-03-28T20:14:23.967Z,6.63
2018-03-28T20:16:51.546Z,6.77
2018-03-28T20:19:19.230Z,6.48
2018-03-28T20:21:46.819Z,6.31
2018-03-28T20:24:14.414Z,6.38
2018-03-28T20:26:44.075Z,6.38
2018-03-28T20:29:11.691Z,6.49
2018-03-28T20:31:39.290Z,6.23
2018-03-28T20:34:06.882Z,6.14
2018-03-28T20:36:34.476Z,6.02
2018-03-28T20:39:02.070Z,5.99
2018-03-28T20:41:29.775Z,6.08
2018-03-28T20:43:57.367Z,6.18
2018-03-28T20:46:24.967Z,6.06
2018-03-28T20:48:53.106Z,5.96
2018-03-28T20:51:20.732Z,5.89
2018-03-28T20:53:48.362Z,6.01
2018-03-28T20:56:16.001Z,5.79
2018-03-28T20:58:43.652Z,5.56
2018-03-28T21:01:11.236Z,5.51
2018-03-28T21:03:38.826Z,5.51
2018-03-28T21:06:06.434Z,5.57
2018-03-28T21:08:34.017Z,5.55
2018-03-28T21:11:01.633Z,5.45
2018-03-28T21:13:29.235Z,5.70
2018-03-28T21:15:56.899Z,5.73
2018-03-28T21:18:24.491Z,5.77
2018-03-28T21:20:52.080Z,5.91
2018-03-28T21:23:19.674Z,5.74
2018-03-28T21:25:47.263Z,5.65
2018-03-28T21:28:14.892Z,5.79
2018-03-28T21:30:42.492Z,5.65
2018-03-28T21:33:10.088Z,5.58
2018-03-28T21:35:37.736Z,5.64
2018-03-28T21:38:05.399Z,5.65
2018-03-28T21:40:33.067Z,5.35
2018-03-28T21:43:00.652Z,5.36
2018-03-28T21:45:28.242Z,5.40
2018-03-28T21:47:55.842Z,5.37
2018-03-28T21:50:23.472Z,5.33
2018-03-28T21:52:51.059Z,5.41
2018-03-28T21:55:18.651Z,5.08
2018-03-28T21:57:46.283Z,5.07
2018-03-28T22:00:13.891Z,5.12
2018-03-28T22:02:41.493Z,5.08
2018-03-28T22:05:09.118Z,4.86
2018-03-28T22:07:36.707Z,4.75
2018-03-28T22:10:04.351Z,4.75
2018-03-28T22:12:31.971Z,5.00
2018-03-28T22:14:59.594Z,5.03
2018-03-28T22:17:27.225Z,5.51
2018-03-28T22:19:54.818Z,5.44
2018-03-28T22:22:22.415Z,5.55
2018-03-28T22:24:50.001Z,5.52
2018-03-28T22:27:17.639Z,5.36
2018-03-28T22:29:45.240Z,5.52
2018-03-28T22:32:12.824Z,5.33
2018-03-28T22:34:40.418Z,5.18
2018-03-28T22:37:08.007Z,5.35
2018-03-28T22:39:35.635Z,5.42
2018-03-28T22:42:03.232Z,5.11
2018-03-28T22:44:30.816Z,5.04
2018-03-28T22:46:58.446Z,4.98
2018-03-28T22:49:26.043Z,5.06
2018-03-28T22:51:53.639Z,5.06
2018-03-28T22:54:21.238Z,4.95
2018-03-28T22:56:48.823Z,4.88
2018-03-28T22:59:16.446Z,5.01
2018-03-28T23:01:44.040Z,4.96
2018-03-28T23:04:11.647Z,5.11
2018-03-28T23:06:39.279Z,5.14
2018-03-28T23:09:06.902Z,5.48
2018-03-28T23:11:34.490Z,5.41
2018-03-28T23:14:02.079Z,5.38
2018-03-28T23:16:29.714Z,5.39
2018-03-28T23:18:57.306Z,5.37
2018-03-28T23:21:24.923Z,5.39
2018-03-28T23:23:52.535Z,5.28
2018-03-28T23:26:20.151Z,5.15
2018-03-28T23:28:47.770Z,5.15
2018-03-28T23:31:15.362Z,5.08
2018-03-28T23:33:43.011Z,4.90
2018-03-28T23:36:10.601Z,4.88
2018-03-28T23:38:38.219Z,4.91
2018-03-28T23:41:05.854Z,4.90
2018-03-28T23:43:33.471Z,5.05
2018-03-28T23:46:01.054Z,4.80
2018-03-28T23:48:28.683Z,4.58
2018-03-28T23:50:56.274Z,4.36
2018-03-28T23:53:25.467Z,4.45
2018-03-28T23:55:53.062Z,4.57
2018-03-28T23:58:20.695Z,4.26
